Time;durP1;ratioP1;P1;durP2;ratioP2;P2;SDS_P1;SDS_P2;PMS_P1;PMS_P2;Temp;Humidity;BMP_temperature;BMP_pressure;BME280_temperature;BME280_humidity;BME280_pressure;Samples;Min_cycle;Max_cycle;Signal;HPM_P1;HPM_P2
2022/03/17 00:00:33;;;;;;;5.15;3.60;;;10.70;99.90;;;;;;4965098;28;20405;-68
2022/03/17 00:02:59;;;;;;;10.18;6.20;;;10.70;99.90;;;;;;4957946;28;20047;-69
2022/03/17 00:05:25;;;;;;;6.47;4.68;;;10.70;99.90;;;;;;4946636;28;20072;-69
2022/03/17 00:07:54;;;;;;;7.13;3.00;;;10.70;99.90;;;;;;4947856;28;20519;-69
2022/03/17 00:10:19;;;;;;;11.50;5.68;;;10.70;99.90;;;;;;4924374;28;20043;-70
2022/03/17 00:12:57;;;;;;;7.28;4.72;;;10.70;99.90;;;;;;4946467;28;20045;-68
2022/03/17 00:15:23;;;;;;;5.03;3.03;;;10.70;99.90;;;;;;4933713;28;20050;-69
2022/03/17 00:17:52;;;;;;;8.70;5.45;;;10.70;99.90;;;;;;4916301;28;20047;-69
2022/03/17 00:20:26;;;;;;;12.48;6.90;;;10.70;99.90;;;;;;4905960;28;20122;-70
2022/03/17 00:22:52;;;;;;;11.23;6.60;;;10.70;99.90;;;;;;4916907;28;20118;-70
2022/03/17 00:25:17;;;;;;;7.90;4.68;;;10.80;99.90;;;;;;4956061;28;20038;-69
2022/03/17 00:27:43;;;;;;;8.32;5.10;;;10.80;99.90;;;;;;4953095;28;20089;-69
2022/03/17 00:30:10;;;;;;;5.53;4.35;;;10.80;99.90;;;;;;4965728;28;20043;-69
2022/03/17 00:32:35;;;;;;;6.80;4.93;;;10.80;99.90;;;;;;4950899;28;20455;-69
2022/03/17 00:37:46;;;;;;;12.57;7.63;;;10.80;99.90;;;;;;4969226;28;20046;-68
2022/03/17 00:40:13;;;;;;;11.00;6.05;;;10.80;99.90;;;;;;4961722;28;20580;-69
2022/03/17 00:42:39;;;;;;;21.10;8.70;;;10.70;99.90;;;;;;4969573;28;20079;-69
2022/03/17 00:45:05;;;;;;;14.40;5.95;;;10.80;99.90;;;;;;4973083;28;20425;-69
2022/03/17 00:47:30;;;;;;;5.05;4.05;;;10.70;99.90;;;;;;4954652;28;20517;-69
2022/03/17 00:49:56;;;;;;;7.82;6.03;;;10.70;99.90;;;;;;4951151;28;20055;-69
2022/03/17 00:52:22;;;;;;;8.13;5.20;;;10.70;99.90;;;;;;4933020;28;20522;-69
2022/03/17 00:54:47;;;;;;;8.32;4.65;;;10.60;99.90;;;;;;4940896;28;20122;-69
2022/03/17 00:57:13;;;;;;;11.40;6.47;;;10.70;99.90;;;;;;4945632;28;20073;-69
2022/03/17 00:59:40;;;;;;;10.70;5.65;;;10.70;99.90;;;;;;4989095;28;20070;-69
2022/03/17 01:02:07;;;;;;;11.40;6.90;;;10.70;99.90;;;;;;4977401;28;20408;-69
2022/03/17 01:04:33;;;;;;;13.93;7.80;;;10.80;99.90;;;;;;4963603;28;20129;-69
2022/03/17 01:06:59;;;;;;;17.65;6.63;;;10.80;99.90;;;;;;4972313;28;20077;-69
2022/03/17 01:09:28;;;;;;;9.70;5.55;;;10.80;99.90;;;;;;4941188;28;20173;-69
2022/03/17 01:11:53;;;;;;;7.25;4.28;;;10.80;99.90;;;;;;4973792;28;20130;-69
2022/03/17 01:14:19;;;;;;;11.55;4.85;;;10.80;99.90;;;;;;4936852;28;20366;-69
2022/03/17 01:16:45;;;;;;;9.45;5.95;;;10.80;99.90;;;;;;4950120;28;20069;-69
2022/03/17 01:19:10;;;;;;;15.65;7.93;;;10.80;99.90;;;;;;4971770;28;20089;-69
2022/03/17 01:21:36;;;;;;;11.07;6.75;;;10.80;99.90;;;;;;4968409;28;20052;-69
2022/03/17 01:24:02;;;;;;;16.20;8.95;;;10.90;99.90;;;;;;4939270;28;20050;-69
2022/03/17 01:26:27;;;;;;;9.85;5.32;;;10.90;99.90;;;;;;4974131;28;20460;-69
2022/03/17 01:28:59;;;;;;;10.98;5.65;;;10.90;99.90;;;;;;4921243;28;20051;-69
2022/03/17 01:31:35;;;;;;;16.02;7.93;;;11.00;99.90;;;;;;4905473;28;20060;-69
2022/03/17 01:34:02;;;;;;;17.48;9.95;;;11.00;99.90;;;;;;4946818;28;20038;-69
2022/03/17 01:36:28;;;;;;;10.20;6.68;;;11.00;99.90;;;;;;4885275;28;20621;-69
2022/03/17 01:38:54;;;;;;;14.50;9.43;;;11.00;99.90;;;;;;4904001;28;20042;-69
2022/03/17 01:41:20;;;;;;;15.60;8.32;;;11.00;99.90;;;;;;4942332;28;20422;-69
2022/03/17 01:43:45;;;;;;;19.95;6.32;;;11.00;99.90;;;;;;4958693;28;20057;-69
2022/03/17 01:46:14;;;;;;;14.55;10.25;;;11.00;99.90;;;;;;4952603;28;20138;-69
2022/03/17 01:48:40;;;;;;;11.95;7.15;;;11.00;99.90;;;;;;4953547;28;20055;-69
2022/03/17 01:51:06;;;;;;;15.18;9.45;;;11.00;99.90;;;;;;4969006;28;20490;-69
2022/03/17 01:53:32;;;;;;;7.32;6.13;;;11.00;99.90;;;;;;4952418;28;20038;-69
2022/03/17 01:55:58;;;;;;;10.88;6.43;;;11.00;99.90;;;;;;4958465;28;20041;-69
2022/03/17 01:58:24;;;;;;;6.00;3.97;;;11.00;99.90;;;;;;4961074;28;20122;-69
2022/03/17 02:00:51;;;;;;;19.67;10.40;;;11.00;99.90;;;;;;4981448;28;20049;-69
2022/03/17 02:03:17;;;;;;;18.00;9.15;;;11.00;99.90;;;;;;4964040;28;20094;-69
2022/03/17 02:05:46;;;;;;;7.90;6.20;;;11.00;99.90;;;;;;4953757;28;20038;-69
2022/03/17 02:08:15;;;;;;;22.73;11.05;;;11.00;99.90;;;;;;4969847;28;20125;-70
2022/03/17 02:13:25;;;;;;;14.13;9.27;;;10.90;99.90;;;;;;4959611;28;20495;-69
2022/03/17 02:15:52;;;;;;;9.00;6.50;;;10.90;99.90;;;;;;4954506;28;20049;-69
2022/03/17 02:18:18;;;;;;;18.15;12.15;;;10.80;99.90;;;;;;4966692;28;20120;-69
2022/03/17 02:20:45;;;;;;;16.70;10.27;;;10.70;99.90;;;;;;4980643;28;20037;-69
2022/03/17 02:26:04;;;;;;;9.63;6.18;;;10.60;99.90;;;;;;4909092;28;20059;-69
2022/03/17 02:28:32;;;;;;;9.90;6.55;;;10.60;99.90;;;;;;4908339;28;20130;-69
2022/03/17 02:31:00;;;;;;;17.30;9.68;;;10.60;99.90;;;;;;4909446;28;20615;-69
2022/03/17 02:33:26;;;;;;;12.52;5.97;;;10.50;99.90;;;;;;4946356;28;20132;-69
2022/03/17 02:35:53;;;;;;;14.18;6.45;;;10.50;99.90;;;;;;4984341;28;20641;-68
2022/03/17 02:38:20;;;;;;;11.35;7.80;;;10.50;99.90;;;;;;4969121;28;20046;-68
2022/03/17 02:40:50;;;;;;;15.32;9.20;;;10.50;99.90;;;;;;4966540;28;20098;-69
2022/03/17 02:43:16;;;;;;;14.35;6.68;;;10.50;99.90;;;;;;4963913;28;20042;-69
2022/03/17 02:45:43;;;;;;;13.55;7.25;;;10.50;99.90;;;;;;4957874;28;20053;-69
2022/03/17 02:48:09;;;;;;;25.05;12.63;;;10.50;99.90;;;;;;4952661;28;20466;-69
2022/03/17 02:50:36;;;;;;;14.07;8.90;;;10.50;99.90;;;;;;4968256;28;20414;-69
2022/03/17 02:53:10;;;;;;;10.45;5.32;;;10.60;99.90;;;;;;4964368;28;20538;-70
2022/03/17 02:55:38;;;;;;;6.97;3.83;;;10.50;99.90;;;;;;4968614;28;20226;-69
2022/03/17 02:58:05;;;;;;;13.55;7.90;;;10.50;99.90;;;;;;4938195;28;20035;-69
2022/03/17 03:00:31;;;;;;;11.88;6.80;;;10.50;99.90;;;;;;4986077;28;20117;-69
2022/03/17 03:02:57;;;;;;;7.22;5.10;;;10.50;99.90;;;;;;4920162;28;20042;-68
2022/03/17 03:05:23;;;;;;;9.63;6.00;;;10.50;99.90;;;;;;4891594;28;20081;-71
2022/03/17 03:07:49;;;;;;;17.20;10.38;;;10.50;99.90;;;;;;4966206;28;20121;-70
2022/03/17 03:10:15;;;;;;;14.80;7.07;;;10.50;99.90;;;;;;4984112;28;20328;-70
2022/03/17 03:12:41;;;;;;;13.93;9.65;;;10.60;99.90;;;;;;4985273;28;20538;-70
2022/03/17 03:15:07;;;;;;;7.93;5.68;;;10.60;99.90;;;;;;4969224;28;20490;-70
2022/03/17 03:17:33;;;;;;;11.95;5.45;;;10.50;99.90;;;;;;4965866;28;20046;-70
2022/03/17 03:19:59;;;;;;;14.23;8.05;;;10.60;99.90;;;;;;4969332;28;20093;-70
2022/03/17 03:22:29;;;;;;;19.67;8.68;;;10.50;99.90;;;;;;4968782;28;20526;-68
2022/03/17 03:24:56;;;;;;;12.15;6.60;;;10.50;99.90;;;;;;4977385;28;20056;-68
2022/03/17 03:27:27;;;;;;;9.25;6.40;;;10.60;99.90;;;;;;4969409;28;20129;-68
2022/03/17 03:29:54;;;;;;;10.73;6.88;;;10.60;99.90;;;;;;4976938;28;20045;-68
2022/03/17 03:32:19;;;;;;;11.57;7.40;;;10.60;99.90;;;;;;4985600;28;20696;-69
2022/03/17 03:34:45;;;;;;;15.65;9.10;;;10.60;99.90;;;;;;4977530;28;20122;-68
2022/03/17 03:37:26;;;;;;;7.60;5.40;;;10.60;99.90;;;;;;4967975;28;20046;-68
2022/03/17 03:39:56;;;;;;;15.10;7.65;;;10.60;99.90;;;;;;4965645;28;20075;-68
2022/03/17 03:42:23;;;;;;;8.25;4.75;;;10.60;99.90;;;;;;4942985;28;20046;-68
2022/03/17 03:44:49;;;;;;;11.48;7.78;;;10.70;99.90;;;;;;4942278;28;20406;-68
2022/03/17 03:47:15;;;;;;;5.45;4.53;;;10.70;99.90;;;;;;4965348;28;20192;-68
2022/03/17 03:49:42;;;;;;;7.03;5.57;;;10.70;99.90;;;;;;4965450;28;20535;-68
2022/03/17 03:52:10;;;;;;;11.52;5.40;;;10.60;99.90;;;;;;4952908;28;20475;-70
2022/03/17 03:54:36;;;;;;;7.63;4.55;;;10.40;99.90;;;;;;4977944;28;20513;-70
2022/03/17 03:57:03;;;;;;;10.55;6.45;;;10.30;99.90;;;;;;4985091;28;20036;-68
2022/03/17 03:59:29;;;;;;;3.08;2.88;;;10.20;99.90;;;;;;4948453;28;20045;-68
2022/03/17 04:01:59;;;;;;;12.10;3.88;;;10.10;99.90;;;;;;4956749;28;20042;-68
2022/03/17 04:04:25;;;;;;;13.10;7.88;;;10.00;99.90;;;;;;4955522;28;20053;-68
2022/03/17 04:06:54;;;;;;;13.13;6.38;;;10.00;99.90;;;;;;4956424;28;20054;-68
2022/03/17 04:09:29;;;;;;;17.13;8.55;;;9.90;99.90;;;;;;4954978;28;20476;-70
2022/03/17 04:12:20;;;;;;;14.77;8.05;;;9.80;99.90;;;;;;4956084;28;20148;-68
2022/03/17 04:14:56;;;;;;;7.28;5.35;;;9.80;99.90;;;;;;4959537;28;20049;-70
2022/03/17 04:17:21;;;;;;;11.02;5.65;;;9.70;99.90;;;;;;4964954;28;20055;-70
2022/03/17 04:19:47;;;;;;;12.00;7.22;;;9.70;99.90;;;;;;4980534;28;20042;-70
2022/03/17 04:22:12;;;;;;;10.80;8.52;;;9.60;99.90;;;;;;4960028;28;20046;-70
2022/03/17 04:24:38;;;;;;;9.73;7.38;;;9.60;99.90;;;;;;4965745;28;20042;-70
2022/03/17 04:27:05;;;;;;;11.70;7.45;;;9.60;99.90;;;;;;4960475;28;20649;-70
2022/03/17 04:29:30;;;;;;;19.05;9.55;;;9.60;99.90;;;;;;4965052;28;20473;-70
2022/03/17 04:31:56;;;;;;;11.32;8.13;;;9.50;99.90;;;;;;4979717;28;20074;-70
2022/03/17 04:34:22;;;;;;;20.48;9.73;;;9.50;99.90;;;;;;4968167;28;20041;-69
2022/03/17 04:36:57;;;;;;;19.42;10.05;;;9.50;99.90;;;;;;4952336;28;20050;-69
2022/03/17 04:39:22;;;;;;;24.38;14.10;;;9.50;99.90;;;;;;4967598;28;20034;-69
2022/03/17 04:41:48;;;;;;;11.85;7.15;;;9.50;99.90;;;;;;4944694;28;20728;-69
2022/03/17 04:44:13;;;;;;;6.18;4.30;;;9.50;99.90;;;;;;4966167;28;20050;-69
2022/03/17 04:46:40;;;;;;;13.38;7.80;;;9.50;99.90;;;;;;4965195;28;20054;-69
2022/03/17 04:49:06;;;;;;;26.15;10.63;;;9.40;99.90;;;;;;4966939;28;20415;-69
2022/03/17 04:51:32;;;;;;;23.42;11.88;;;9.40;99.90;;;;;;4956300;28;20046;-69
2022/03/17 04:53:58;;;;;;;6.90;4.95;;;9.40;99.90;;;;;;4974842;28;20143;-69
2022/03/17 04:56:24;;;;;;;4.38;3.70;;;9.40;99.90;;;;;;4952127;28;20042;-70
2022/03/17 04:58:49;;;;;;;32.30;18.15;;;9.40;99.90;;;;;;4971412;28;20050;-70
2022/03/17 05:01:16;;;;;;;17.73;9.15;;;9.40;99.90;;;;;;4976924;28;20149;-70
2022/03/17 05:03:42;;;;;;;15.63;9.43;;;9.40;99.90;;;;;;4986680;28;20125;-70
2022/03/17 05:06:18;;;;;;;9.38;5.82;;;9.50;99.90;;;;;;4932509;28;20042;-70
2022/03/17 05:08:44;;;;;;;7.85;4.97;;;9.40;99.90;;;;;;4957489;28;20042;-69
2022/03/17 05:11:10;;;;;;;10.88;8.02;;;9.10;99.90;;;;;;4957514;28;20039;-72
2022/03/17 05:13:37;;;;;;;6.57;3.80;;;8.90;99.90;;;;;;4966040;28;20049;-71
2022/03/17 05:16:07;;;;;;;9.25;4.32;;;8.80;99.90;;;;;;4956780;28;20038;-71
2022/03/17 05:18:34;;;;;;;7.47;5.00;;;8.70;99.90;;;;;;4939074;28;20141;-72
2022/03/17 05:21:00;;;;;;;1.60;1.50;;;8.60;99.90;;;;;;4967645;28;20057;-72
2022/03/17 05:23:26;;;;;;;8.13;5.78;;;8.50;99.90;;;;;;4959890;28;20038;-72
2022/03/17 05:25:52;;;;;;;12.05;7.63;;;8.50;99.90;;;;;;4971592;28;20061;-72
2022/03/17 05:28:19;;;;;;;5.70;4.70;;;8.50;99.90;;;;;;4970454;28;20720;-72
2022/03/17 05:30:45;;;;;;;7.53;4.07;;;8.40;99.90;;;;;;4965324;28;20392;-72
2022/03/17 05:33:12;;;;;;;6.70;4.57;;;8.40;99.90;;;;;;4957575;28;20046;-72
2022/03/17 05:35:42;;;;;;;4.03;1.92;;;8.40;99.90;;;;;;4961904;28;20607;-72
2022/03/17 05:38:08;;;;;;;2.50;2.30;;;8.30;99.90;;;;;;4960012;28;20046;-72
2022/03/17 05:40:34;;;;;;;10.45;5.00;;;8.20;99.90;;;;;;4954013;28;20527;-71
2022/03/17 05:43:03;;;;;;;6.43;5.05;;;8.20;99.90;;;;;;4966527;28;20122;-71
2022/03/17 05:45:29;;;;;;;29.77;13.02;;;8.20;99.90;;;;;;4959974;28;20537;-72
2022/03/17 05:47:57;;;;;;;31.17;16.92;;;8.20;99.90;;;;;;4972633;28;20050;-72
2022/03/17 05:50:28;;;;;;;7.95;4.43;;;8.20;99.90;;;;;;4953473;28;20531;-72
2022/03/17 05:52:54;;;;;;;22.75;11.25;;;8.20;99.90;;;;;;4961148;28;20103;-72
2022/03/17 05:55:22;;;;;;;20.95;6.18;;;8.10;99.90;;;;;;4960780;28;20057;-72
2022/03/17 05:57:50;;;;;;;10.73;5.13;;;8.10;99.90;;;;;;4986910;28;20514;-71
2022/03/17 06:00:18;;;;;;;14.70;8.32;;;8.10;99.90;;;;;;4971185;28;20061;-72
2022/03/17 06:02:45;;;;;;;16.25;7.53;;;8.10;99.90;;;;;;4972073;28;20050;-71
2022/03/17 06:05:13;;;;;;;25.42;4.85;;;8.00;99.90;;;;;;4973141;28;20073;-71
2022/03/17 06:07:40;;;;;;;96.35;32.33;;;8.00;99.90;;;;;;4966438;28;20046;-72
2022/03/17 06:10:27;;;;;;;11.57;7.95;;;8.00;99.90;;;;;;4979606;28;20125;-72
2022/03/17 06:12:53;;;;;;;14.23;4.15;;;8.00;99.90;;;;;;4972587;28;20082;-72
2022/03/17 06:15:21;;;;;;;5.47;3.40;;;8.00;99.90;;;;;;4955306;28;20661;-72
2022/03/17 06:17:48;;;;;;;11.68;4.47;;;7.90;99.90;;;;;;4968037;28;20042;-71
2022/03/17 06:20:16;;;;;;;11.05;4.45;;;8.00;99.90;;;;;;4962270;28;20034;-72
2022/03/17 06:22:44;;;;;;;8.65;4.43;;;7.90;99.90;;;;;;4944323;28;20046;-71
2022/03/17 06:25:14;;;;;;;7.85;3.72;;;7.90;99.90;;;;;;4936633;28;20510;-71
2022/03/17 06:27:41;;;;;;;13.70;3.05;;;7.90;99.90;;;;;;4969167;28;20061;-72
2022/03/17 06:30:09;;;;;;;18.95;6.50;;;7.90;99.90;;;;;;4985280;28;20333;-71
2022/03/17 06:32:34;;;;;;;5.50;2.92;;;7.90;99.90;;;;;;4970699;28;20043;-71
2022/03/17 06:35:00;;;;;;;11.98;2.90;;;7.80;99.90;;;;;;4986147;28;20092;-71
2022/03/17 06:37:26;;;;;;;12.15;1.27;;;7.80;99.90;;;;;;4986519;28;20046;-72
2022/03/17 06:39:53;;;;;;;6.80;2.80;;;7.80;99.90;;;;;;4959162;28;20049;-72
2022/03/17 06:42:20;;;;;;;7.03;2.58;;;7.80;99.90;;;;;;4955481;28;20070;-71
2022/03/17 06:44:46;;;;;;;16.20;3.13;;;7.80;99.90;;;;;;4961658;28;20443;-71
2022/03/17 06:47:12;;;;;;;5.50;1.90;;;7.80;99.90;;;;;;4951404;28;20050;-69
2022/03/17 06:49:37;;;;;;;6.65;2.97;;;7.90;99.90;;;;;;4954139;28;20050;-69
2022/03/17 06:52:03;;;;;;;13.50;3.65;;;7.80;99.90;;;;;;4967582;28;20100;-70
2022/03/17 06:54:29;;;;;;;8.50;2.35;;;7.80;99.90;;;;;;4963131;28;20057;-70
2022/03/17 06:56:54;;;;;;;7.60;2.05;;;7.80;99.90;;;;;;4986927;28;20557;-70
2022/03/17 06:59:20;;;;;;;5.13;2.15;;;7.80;99.90;;;;;;4966844;28;20044;-69
2022/03/17 07:01:46;;;;;;;3.67;2.00;;;7.80;99.90;;;;;;4941371;28;20419;-70
2022/03/17 07:04:11;;;;;;;19.17;3.42;;;7.70;99.90;;;;;;4977705;28;20034;-69
2022/03/17 07:06:37;;;;;;;6.78;2.60;;;7.80;99.90;;;;;;4985225;28;20596;-69
2022/03/17 07:09:02;;;;;;;8.02;2.58;;;7.80;99.90;;;;;;4981622;28;20904;-70
2022/03/17 07:11:28;;;;;;;1.13;0.82;;;7.70;99.90;;;;;;4954286;28;20046;-70
2022/03/17 07:13:54;;;;;;;3.15;1.25;;;7.70;99.90;;;;;;4952170;28;20134;-70
2022/03/17 07:16:19;;;;;;;6.53;1.88;;;7.70;99.90;;;;;;4969773;28;20133;-70
2022/03/17 07:18:45;;;;;;;26.52;3.22;;;7.70;99.90;;;;;;4967642;28;20240;-70
2022/03/17 07:21:10;;;;;;;4.85;2.10;;;7.70;99.90;;;;;;4987238;28;20061;-70
2022/03/17 07:23:36;;;;;;;10.60;2.00;;;7.70;99.90;;;;;;4962784;28;20038;-70
2022/03/17 07:26:05;;;;;;;0.77;0.60;;;7.70;99.90;;;;;;4942700;28;20038;-70
2022/03/17 07:28:30;;;;;;;1.83;1.13;;;7.70;99.90;;;;;;4956347;28;20034;-70
2022/03/17 07:30:56;;;;;;;7.40;2.75;;;7.70;99.90;;;;;;4961991;28;20046;-70
2022/03/17 07:33:21;;;;;;;15.55;2.20;;;7.60;99.90;;;;;;4984074;28;20053;-70
2022/03/17 07:35:47;;;;;;;4.32;1.52;;;7.70;99.90;;;;;;4959355;28;20039;-70
2022/03/17 07:38:13;;;;;;;3.45;1.33;;;7.70;99.90;;;;;;4964019;28;20042;-70
2022/03/17 07:40:39;;;;;;;10.38;2.05;;;7.80;99.90;;;;;;4959180;28;20073;-70
2022/03/17 07:43:04;;;;;;;9.57;3.15;;;7.80;99.90;;;;;;4985008;28;20510;-70
2022/03/17 07:45:30;;;;;;;7.25;1.98;;;7.80;99.90;;;;;;4982216;28;20429;-71
2022/03/17 07:47:57;;;;;;;17.45;2.33;;;7.80;99.90;;;;;;4983026;28;20055;-70
2022/03/17 07:50:22;;;;;;;11.07;2.30;;;7.80;99.90;;;;;;4967056;28;20132;-69
2022/03/17 07:52:48;;;;;;;8.00;1.80;;;7.80;99.90;;;;;;4968598;28;20046;-69
2022/03/17 07:55:17;;;;;;;8.27;2.55;;;7.80;99.90;;;;;;4985777;28;20050;-69
2022/03/17 07:57:43;;;;;;;12.98;2.10;;;7.90;99.90;;;;;;4967581;28;20073;-69
2022/03/17 08:00:13;;;;;;;10.55;3.17;;;7.90;99.90;;;;;;4974160;28;20046;-69
2022/03/17 08:02:40;;;;;;;6.25;1.83;;;7.90;99.90;;;;;;4986582;28;20062;-69
2022/03/17 08:05:07;;;;;;;13.35;2.05;;;7.90;99.90;;;;;;4982451;28;20058;-70
2022/03/17 08:07:32;;;;;;;5.82;1.70;;;7.90;99.90;;;;;;4963241;28;20080;-70
2022/03/17 08:09:58;;;;;;;21.50;2.33;;;7.90;99.90;;;;;;4983171;28;20074;-70
2022/03/17 08:12:26;;;;;;;12.45;2.83;;;7.90;99.90;;;;;;4964286;28;20065;-69
2022/03/17 08:14:53;;;;;;;8.88;2.08;;;7.90;99.90;;;;;;4955713;28;20116;-69
2022/03/17 08:17:19;;;;;;;3.97;1.27;;;7.90;99.90;;;;;;4962386;28;20491;-69
2022/03/17 08:19:45;;;;;;;6.43;1.85;;;7.90;99.90;;;;;;4966593;28;20042;-70
2022/03/17 08:22:10;;;;;;;15.25;2.85;;;8.00;99.90;;;;;;4961195;28;20502;-70
2022/03/17 08:24:36;;;;;;;9.48;2.20;;;8.00;99.90;;;;;;4968802;28;20465;-70
2022/03/17 08:27:03;;;;;;;14.85;2.33;;;8.00;99.90;;;;;;4951344;28;20454;-70
2022/03/17 08:29:29;;;;;;;2.22;1.00;;;8.10;99.90;;;;;;4978721;28;20416;-70
2022/03/17 08:31:55;;;;;;;8.85;2.50;;;8.10;99.90;;;;;;4956469;28;20125;-70
2022/03/17 08:34:20;;;;;;;10.73;2.25;;;8.10;99.90;;;;;;4968599;28;20734;-70
2022/03/17 08:36:47;;;;;;;3.08;1.13;;;8.10;99.90;;;;;;4954927;28;20205;-70
2022/03/17 08:39:12;;;;;;;3.20;1.52;;;8.10;99.90;;;;;;4963892;28;20518;-70
2022/03/17 08:41:38;;;;;;;7.80;2.17;;;8.10;99.90;;;;;;4958360;28;20042;-70
2022/03/17 08:44:04;;;;;;;5.78;1.95;;;8.10;99.90;;;;;;4959922;28;20050;-70
2022/03/17 08:49:21;;;;;;;3.88;1.13;;;8.00;99.90;;;;;;4967466;28;20053;-70
2022/03/17 08:51:48;;;;;;;;;;;7.90;99.90;;;;;;4970586;28;20046;-70
2022/03/17 08:54:14;;;;;;;7.95;1.77;;;7.90;99.90;;;;;;4968353;28;20487;-70
2022/03/17 08:56:40;;;;;;;10.35;2.45;;;7.90;99.90;;;;;;4972970;28;20464;-70
2022/03/17 08:59:06;;;;;;;6.65;1.58;;;7.90;99.90;;;;;;4939101;28;20081;-70
2022/03/17 09:01:32;;;;;;;5.10;1.52;;;8.00;99.90;;;;;;4964984;28;20062;-70
2022/03/17 09:03:58;;;;;;;6.47;1.48;;;8.20;99.90;;;;;;4961358;28;20624;-70
2022/03/17 09:06:24;;;;;;;7.63;2.20;;;8.30;99.90;;;;;;4965819;28;20050;-70
2022/03/17 09:08:50;;;;;;;10.60;2.67;;;8.30;99.90;;;;;;4959920;28;20054;-70
2022/03/17 09:11:19;;;;;;;2.45;0.80;;;8.30;99.90;;;;;;4983856;28;20534;-70
2022/03/17 09:13:46;;;;;;;6.80;1.80;;;8.30;99.90;;;;;;4957568;28;20046;-70
2022/03/17 09:16:12;;;;;;;3.72;1.20;;;8.20;99.90;;;;;;4965173;28;20100;-70
2022/03/17 09:18:39;;;;;;;6.80;1.70;;;8.10;99.90;;;;;;4967338;28;20566;-69
2022/03/17 09:21:06;;;;;;;11.63;2.17;;;8.00;99.90;;;;;;4959734;28;20126;-69
2022/03/17 09:23:32;;;;;;;2.58;1.42;;;8.10;99.90;;;;;;4968617;28;20042;-70
2022/03/17 09:25:57;;;;;;;7.25;1.42;;;8.10;99.90;;;;;;4954253;28;20089;-70
2022/03/17 09:28:27;;;;;;;8.82;2.17;;;8.20;99.90;;;;;;4968835;28;20042;-70
2022/03/17 09:30:54;;;;;;;11.88;2.88;;;8.40;99.90;;;;;;4970314;28;20050;-70
2022/03/17 09:33:28;;;;;;;8.70;2.15;;;9.00;99.90;;;;;;4970075;28;20498;-70
2022/03/17 09:35:57;;;;;;;11.75;2.08;;;9.60;99.90;;;;;;4966412;28;20507;-70
2022/03/17 09:38:24;;;;;;;15.75;2.50;;;10.10;99.90;;;;;;4966262;28;20049;-70
2022/03/17 09:40:49;;;;;;;9.95;1.27;;;10.30;99.90;;;;;;4966567;28;20054;-70
2022/03/17 09:43:18;;;;;;;8.65;2.20;;;10.10;99.90;;;;;;4982206;28;20038;-70
2022/03/17 09:45:45;;;;;;;10.85;2.25;;;9.90;99.90;;;;;;4961611;28;20049;-70
2022/03/17 09:48:14;;;;;;;13.65;2.30;;;9.70;99.90;;;;;;4985991;28;20185;-70
2022/03/17 09:50:41;;;;;;;12.23;2.10;;;9.60;99.90;;;;;;4955373;28;20042;-70
2022/03/17 09:53:08;;;;;;;7.97;2.25;;;9.50;99.90;;;;;;4950595;28;20050;-70
2022/03/17 09:55:35;;;;;;;9.32;2.00;;;9.50;99.90;;;;;;4984061;28;20124;-70
2022/03/17 09:58:03;;;;;;;11.50;2.80;;;9.50;99.90;;;;;;4971027;28;20042;-70
2022/03/17 10:00:48;;;;;;;5.13;1.45;;;9.60;99.90;;;;;;4978844;28;20038;-70
2022/03/17 10:03:25;;;;;;;6.65;2.08;;;9.80;99.90;;;;;;4970134;28;20038;-70
2022/03/17 10:05:51;;;;;;;8.68;2.00;;;10.00;99.90;;;;;;4975870;28;20051;-70
2022/03/17 10:08:18;;;;;;;5.03;1.48;;;10.30;99.90;;;;;;4962833;28;20470;-70
2022/03/17 10:10:44;;;;;;;11.40;2.50;;;10.30;99.90;;;;;;4967006;28;20050;-70
2022/03/17 10:13:13;;;;;;;6.05;1.75;;;10.30;99.90;;;;;;4963161;28;20096;-71
2022/03/17 10:15:39;;;;;;;9.85;2.25;;;10.50;99.90;;;;;;4965417;28;20084;-71
2022/03/17 10:18:18;;;;;;;7.03;1.95;;;10.60;99.90;;;;;;4951910;28;20042;-71
2022/03/17 10:20:44;;;;;;;4.28;1.40;;;10.50;99.90;;;;;;4954058;28;20546;-71
2022/03/17 10:23:10;;;;;;;7.63;1.98;;;10.60;99.90;;;;;;4953760;28;20074;-71
2022/03/17 10:25:37;;;;;;;8.15;1.70;;;10.60;99.90;;;;;;4968734;28;20057;-71
2022/03/17 10:28:03;;;;;;;9.90;3.78;;;10.50;99.90;;;;;;4965334;28;20118;-70
2022/03/17 10:30:33;;;;;;;9.73;2.42;;;10.50;99.90;;;;;;4969226;28;20042;-70
2022/03/17 10:33:14;;;;;;;8.50;1.88;;;10.30;99.90;;;;;;4966861;28;20498;-70
2022/03/17 10:35:45;;;;;;;4.38;0.98;;;10.20;99.90;;;;;;4949369;28;20053;-70
2022/03/17 10:38:18;;;;;;;10.40;2.83;;;10.10;99.90;;;;;;4960080;28;20403;-70
2022/03/17 10:40:58;;;;;;;4.10;1.48;;;10.00;99.90;;;;;;4968656;28;20133;-70
2022/03/17 10:43:25;;;;;;;22.75;2.72;;;10.10;99.90;;;;;;4973490;28;20451;-70
2022/03/17 10:46:05;;;;;;;4.85;1.35;;;10.20;99.90;;;;;;4965050;28;20054;-70
2022/03/17 10:48:30;;;;;;;11.18;2.40;;;10.50;99.90;;;;;;4964113;28;20074;-70
2022/03/17 10:50:56;;;;;;;3.58;1.40;;;11.00;99.90;;;;;;4943734;28;20042;-71
2022/03/17 10:53:29;;;;;;;7.80;2.58;;;11.30;99.90;;;;;;4966969;28;20136;-71
2022/03/17 10:56:10;;;;;;;13.13;1.85;;;11.40;99.90;;;;;;4968095;28;20046;-71
2022/03/17 10:58:43;;;;;;;2.92;1.13;;;11.30;99.90;;;;;;4976100;28;20038;-71
2022/03/17 11:01:10;;;;;;;1.95;0.63;;;11.30;99.90;;;;;;4986029;28;20443;-71
2022/03/17 11:03:36;;;;;;;3.97;1.42;;;11.10;99.90;;;;;;4965708;28;20070;-71
2022/03/17 11:06:03;;;;;;;6.13;1.27;;;10.80;99.90;;;;;;4960294;28;20086;-70
2022/03/17 11:08:45;;;;;;;11.15;2.67;;;10.60;99.90;;;;;;4966594;28;20094;-71
2022/03/17 11:11:22;;;;;;;5.78;1.67;;;10.70;99.90;;;;;;4967826;28;20086;-69
2022/03/17 11:13:50;;;;;;;5.93;2.17;;;10.80;99.90;;;;;;4951000;28;20698;-69
2022/03/17 11:16:17;;;;;;;11.80;2.45;;;11.20;99.90;;;;;;4959005;28;20053;-69
2022/03/17 11:18:44;;;;;;;8.93;1.95;;;11.60;99.90;;;;;;4951488;28;20126;-69
2022/03/17 11:21:21;;;;;;;8.02;1.83;;;11.90;99.90;;;;;;4935915;28;20046;-69
2022/03/17 11:23:59;;;;;;;8.77;2.28;;;12.20;99.90;;;;;;4964486;28;20038;-70
2022/03/17 11:26:34;;;;;;;5.47;1.58;;;12.30;99.90;;;;;;4969001;28;20423;-69
2022/03/17 11:29:21;;;;;;;6.93;1.50;;;12.30;99.90;;;;;;4969060;28;20046;-69
2022/03/17 11:31:57;;;;;;;1.88;1.05;;;12.30;99.90;;;;;;4970396;28;20410;-69
2022/03/17 11:34:38;;;;;;;9.93;1.42;;;12.30;99.90;;;;;;4967105;28;20321;-69
2022/03/17 11:37:19;;;;;;;13.00;3.13;;;12.40;99.70;;;;;;4982319;28;20476;-69
2022/03/17 11:39:49;;;;;;;5.38;1.70;;;12.30;99.90;;;;;;4967651;28;20041;-69
2022/03/17 11:42:42;;;;;;;5.10;1.63;;;12.40;99.90;;;;;;4967901;28;20149;-69
2022/03/17 11:45:14;;;;;;;5.65;1.60;;;12.60;98.90;;;;;;4968628;28;20550;-69
2022/03/17 11:47:52;;;;;;;4.10;1.50;;;12.60;98.00;;;;;;4963315;28;20042;-69
2022/03/17 11:50:36;;;;;;;7.75;1.90;;;12.60;98.30;;;;;;4981874;28;20092;-69
2022/03/17 11:53:05;;;;;;;8.52;2.35;;;12.40;97.70;;;;;;4959798;28;20054;-69
2022/03/17 11:55:31;;;;;;;8.50;2.03;;;12.30;98.60;;;;;;4966313;28;20060;-69
2022/03/17 11:58:24;;;;;;;13.15;3.10;;;12.30;97.60;;;;;;4983312;28;20121;-69
2022/03/17 12:01:02;;;;;;;8.82;2.03;;;12.30;96.60;;;;;;4979451;28;20081;-69
2022/03/17 12:03:41;;;;;;;4.82;1.38;;;12.00;97.10;;;;;;4968936;28;20053;-69
2022/03/17 12:06:12;;;;;;;10.75;2.03;;;12.00;97.10;;;;;;4969913;28;20393;-70
2022/03/17 12:08:46;;;;;;;12.15;1.90;;;12.10;96.90;;;;;;4972296;28;20049;-69
2022/03/17 12:11:13;;;;;;;5.50;2.17;;;12.20;97.00;;;;;;4972652;28;20413;-69
2022/03/17 12:13:43;;;;;;;9.10;1.75;;;12.10;96.80;;;;;;4969961;28;20061;-69
2022/03/17 12:16:12;;;;;;;10.65;2.08;;;12.20;95.70;;;;;;4973372;28;20522;-69
2022/03/17 12:19:00;;;;;;;12.82;2.42;;;12.20;96.50;;;;;;4993651;28;20069;-69
2022/03/17 12:21:57;;;;;;;4.60;1.45;;;12.10;95.90;;;;;;4972710;28;20541;-69
2022/03/17 12:24:54;;;;;;;16.55;1.95;;;12.00;97.60;;;;;;4971613;28;20057;-69
2022/03/17 12:27:30;;;;;;;1.63;0.93;;;12.20;96.80;;;;;;4980798;28;20065;-69
2022/03/17 12:30:00;;;;;;;4.40;1.42;;;12.30;97.30;;;;;;4964140;28;20101;-69
2022/03/17 12:32:39;;;;;;;4.53;1.35;;;12.40;96.10;;;;;;4964002;28;20126;-69
2022/03/17 12:35:09;;;;;;;8.82;1.88;;;12.50;95.60;;;;;;4968201;28;20081;-69
2022/03/17 12:37:40;;;;;;;3.85;1.50;;;12.40;92.90;;;;;;4983713;28;20054;-69
2022/03/17 12:40:12;;;;;;;10.18;1.30;;;12.20;93.20;;;;;;4972387;28;20143;-69
2022/03/17 12:42:43;;;;;;;6.18;1.85;;;11.90;96.20;;;;;;4954687;28;20047;-70
2022/03/17 12:45:14;;;;;;;8.63;2.28;;;12.00;94.10;;;;;;4942035;28;20066;-69
2022/03/17 12:47:43;;;;;;;9.45;1.17;;;12.00;92.10;;;;;;4989167;28;20664;-69
2022/03/17 12:50:14;;;;;;;2.05;1.08;;;11.90;92.20;;;;;;4978679;28;20910;-69
2022/03/17 12:52:41;;;;;;;7.75;1.80;;;11.80;93.10;;;;;;4976381;28;20054;-69
2022/03/17 12:55:13;;;;;;;6.30;1.70;;;11.90;94.40;;;;;;4967456;28;20078;-69
2022/03/17 12:57:40;;;;;;;8.98;1.73;;;12.00;93.10;;;;;;4970914;28;20038;-69
2022/03/17 13:00:08;;;;;;;6.53;1.15;;;12.00;92.30;;;;;;4957851;28;20038;-70
2022/03/17 13:02:34;;;;;;;12.68;2.08;;;12.00;92.70;;;;;;4983676;28;20167;-69